createdAt,value
2023-05-06T00:02:02.896Z,95033.41
2023-05-06T00:04:32.646Z,95036.09
2023-05-06T00:07:01.890Z,95024.47
2023-05-06T00:09:31.042Z,95029.09
2023-05-06T00:12:00.270Z,95026.66
2023-05-06T00:14:29.448Z,95023.66
2023-05-06T00:17:00.071Z,95024.69
2023-05-06T00:19:29.324Z,95019.41
2023-05-06T00:21:58.434Z,95023.59
2023-05-06T00:24:27.671Z,95030.75
2023-05-06T00:26:56.931Z,95020.34
2023-05-06T00:29:26.070Z,95026.88
2023-05-06T00:31:55.287Z,95023.75
2023-05-06T00:34:25.786Z,95023.44
2023-05-06T00:36:54.985Z,95018.38
2023-05-06T00:39:24.175Z,95019.94
2023-05-06T00:41:53.289Z,95015.63
2023-05-06T00:44:22.371Z,95021.63
2023-05-06T00:46:51.462Z,95016.28
2023-05-06T00:49:21.339Z,95013.09
2023-05-06T00:51:52.788Z,95020.97
2023-05-06T00:54:22.849Z,95009.81
2023-05-06T00:56:52.003Z,95009.00
2023-05-06T00:59:21.507Z,95009.22
2023-05-06T01:01:52.399Z,95008.88
2023-05-06T01:04:22.874Z,95010.84
2023-05-06T01:07:00.363Z,95010.41
2023-05-06T01:09:34.255Z,95003.34
2023-05-06T01:12:11.230Z,95003.25
2023-05-06T01:14:48.307Z,94994.81
2023-05-06T01:17:20.344Z,95002.94
2023-05-06T01:19:53.601Z,95007.75
2023-05-06T01:22:26.315Z,95003.63
2023-05-06T01:24:56.947Z,95012.13
2023-05-06T01:27:26.697Z,95005.47
2023-05-06T01:29:56.383Z,94999.81
2023-05-06T01:32:38.216Z,94993.28
2023-05-06T01:35:17.203Z,94989.56
2023-05-06T01:37:53.973Z,94994.63
2023-05-06T01:40:26.709Z,94995.84
2023-05-06T01:42:57.112Z,94993.81
2023-05-06T01:45:30.004Z,95001.41
2023-05-06T01:48:00.850Z,95002.31
2023-05-06T01:50:31.404Z,95007.84
2023-05-06T01:53:01.108Z,94995.38
2023-05-06T01:55:32.525Z,94987.75
2023-05-06T01:58:01.768Z,94997.19
2023-05-06T02:00:30.861Z,94993.81
2023-05-06T02:03:00.077Z,94989.75
2023-05-06T02:05:29.262Z,94992.91
2023-05-06T02:07:59.858Z,94986.53
2023-05-06T02:10:29.073Z,94982.06
2023-05-06T02:13:06.972Z,94979.94
2023-05-06T02:15:37.075Z,94984.06
2023-05-06T02:18:08.023Z,94982.38
2023-05-06T02:20:37.398Z,94989.25
2023-05-06T02:23:26.348Z,94988.41
2023-05-06T02:25:55.654Z,94988.31
2023-05-06T02:28:26.215Z,94988.09
2023-05-06T02:30:57.444Z,94986.56
2023-05-06T02:33:27.021Z,94989.03
2023-05-06T02:35:56.100Z,94994.19
2023-05-06T02:38:26.009Z,94995.50
2023-05-06T02:40:55.759Z,95013.50
2023-05-06T02:43:26.352Z,95009.09
2023-05-06T02:46:14.015Z,95012.16
2023-05-06T02:49:02.516Z,95011.78
2023-05-06T02:51:32.732Z,95011.13
2023-05-06T02:54:01.935Z,95013.41
2023-05-06T02:56:31.443Z,95004.56
2023-05-06T02:59:02.391Z,95013.34
2023-05-06T03:01:31.528Z,95012.09
2023-05-06T03:04:00.701Z,95013.78
2023-05-06T03:06:32.581Z,95012.22
2023-05-06T03:09:01.964Z,95024.09
2023-05-06T03:11:32.214Z,95017.63
2023-05-06T03:14:06.715Z,95026.00
2023-05-06T03:16:36.083Z,95026.53
2023-05-06T03:19:05.185Z,95022.91
2023-05-06T03:21:35.142Z,95023.34
2023-05-06T03:24:05.374Z,95024.78
2023-05-06T03:26:34.869Z,95021.94
2023-05-06T03:29:06.584Z,95021.31
2023-05-06T03:31:36.944Z,95026.38
2023-05-06T03:34:06.152Z,95026.53
2023-05-06T03:36:36.306Z,95029.31
2023-05-06T03:39:05.783Z,95032.75
2023-05-06T03:41:37.286Z,95032.06
2023-05-06T03:44:08.394Z,95035.13
2023-05-06T03:46:39.205Z,95036.50
2023-05-06T03:49:08.645Z,95043.16
2023-05-06T03:51:37.947Z,95042.59
2023-05-06T03:54:07.377Z,95040.16
2023-05-06T03:56:38.042Z,95032.19
2023-05-06T03:59:09.218Z,95036.63
2023-05-06T04:01:38.451Z,95047.66
2023-05-06T04:04:07.756Z,95043.31
2023-05-06T04:06:37.115Z,95055.78
2023-05-06T04:09:06.538Z,95055.38
2023-05-06T04:11:38.591Z,95055.97
2023-05-06T04:14:11.211Z,95060.94
2023-05-06T04:16:40.863Z,95061.47
2023-05-06T04:19:10.056Z,95067.88
2023-05-06T04:21:41.119Z,95059.31
2023-05-06T04:24:13.982Z,95073.78
2023-05-06T04:26:43.601Z,95073.66
2023-05-06T04:29:14.444Z,95073.09
2023-05-06T04:31:55.159Z,95073.75
2023-05-06T04:34:28.032Z,95073.81
2023-05-06T04:37:01.397Z,95069.94
2023-05-06T04:39:39.506Z,95068.66
2023-05-06T04:42:10.204Z,95070.34
2023-05-06T04:44:49.131Z,95085.00
2023-05-06T04:47:20.690Z,95074.69
2023-05-06T04:49:53.114Z,95070.34
2023-05-06T04:52:23.590Z,95070.31
2023-05-06T04:54:52.920Z,95074.69
2023-05-06T04:57:22.343Z,95071.28
2023-05-06T04:59:54.767Z,95065.22
2023-05-06T05:02:24.489Z,95066.28
2023-05-06T05:04:53.700Z,95072.16
2023-05-06T05:07:23.010Z,95072.28
2023-05-06T05:09:52.441Z,95069.84
2023-05-06T05:12:21.751Z,95063.91
2023-05-06T05:14:54.805Z,95066.50
2023-05-06T05:17:24.613Z,95066.69
2023-05-06T05:19:54.572Z,95081.13
2023-05-06T05:22:24.471Z,95091.41
2023-05-06T05:24:53.780Z,95094.66
2023-05-06T05:27:23.547Z,95092.03
2023-05-06T05:29:54.960Z,95095.25
2023-05-06T05:32:24.158Z,95106.50
2023-05-06T05:34:53.499Z,95104.69
2023-05-06T05:37:23.104Z,95108.19
2023-05-06T05:39:52.349Z,95107.66
2023-05-06T05:42:22.115Z,95103.59
2023-05-06T05:44:51.728Z,95103.34
2023-05-06T05:47:23.847Z,95103.06
2023-05-06T05:49:53.361Z,95104.53
2023-05-06T05:52:22.752Z,95106.13
2023-05-06T05:54:51.968Z,95096.50
2023-05-06T05:57:21.569Z,95099.13
2023-05-06T05:59:50.956Z,95096.56
2023-05-06T06:02:20.699Z,95099.03
2023-05-06T06:04:54.353Z,95099.06
2023-05-06T06:07:23.652Z,95098.09
2023-05-06T06:09:52.910Z,95111.00
2023-05-06T06:12:22.146Z,95109.97
2023-05-06T06:14:52.240Z,95105.16
2023-05-06T06:17:24.793Z,95101.16
2023-05-06T06:19:59.673Z,95100.06
2023-05-06T06:22:28.795Z,95102.50
2023-05-06T06:24:58.941Z,95107.59
2023-05-06T06:27:28.155Z,95104.94
2023-05-06T06:29:57.993Z,95106.78
2023-05-06T06:32:27.061Z,95114.03
2023-05-06T06:34:57.698Z,95110.03
2023-05-06T06:37:27.015Z,95110.56
2023-05-06T06:39:56.260Z,95104.38
2023-05-06T06:42:25.687Z,95112.44
2023-05-06T06:45:10.648Z,95121.81
2023-05-06T06:47:40.117Z,95112.19
2023-05-06T06:50:12.269Z,95104.69
2023-05-06T06:52:41.588Z,95107.63
2023-05-06T06:55:11.958Z,95111.09
2023-05-06T06:57:41.747Z,95111.88
2023-05-06T07:00:12.232Z,95116.13
2023-05-06T07:02:41.544Z,95115.34
2023-05-06T07:05:12.715Z,95115.91
2023-05-06T07:07:42.099Z,95116.19
2023-05-06T07:10:11.475Z,95128.72
2023-05-06T07:12:40.612Z,95127.09
2023-05-06T07:15:10.655Z,95137.25
2023-05-06T07:17:40.030Z,95126.06
2023-05-06T07:20:10.368Z,95137.28
2023-05-06T07:22:41.536Z,95130.91
2023-05-06T07:25:11.409Z,95126.63
2023-05-06T07:27:41.115Z,95129.03
2023-05-06T07:30:11.182Z,95138.66
2023-05-06T07:32:41.605Z,95133.31
2023-05-06T07:35:11.610Z,95142.38
2023-05-06T07:37:42.475Z,95143.19
2023-05-06T07:40:12.162Z,95138.66
2023-05-06T07:42:43.178Z,95144.00
2023-05-06T07:45:13.071Z,95131.94
2023-05-06T07:47:42.737Z,95129.53
2023-05-06T07:50:12.614Z,95149.34
2023-05-06T07:52:43.504Z,95151.72
2023-05-06T07:55:12.899Z,95144.00
2023-05-06T07:57:42.305Z,95141.59
2023-05-06T08:00:13.143Z,95143.75
2023-05-06T08:02:45.273Z,95149.59
2023-05-06T08:05:15.049Z,95157.38
2023-05-06T08:07:45.687Z,95152.28
2023-05-06T08:10:14.840Z,95152.53
2023-05-06T08:12:44.249Z,95143.72
2023-05-06T08:15:13.805Z,95144.78
2023-05-06T08:17:43.083Z,95142.66
2023-05-06T08:20:13.137Z,95147.44
2023-05-06T08:22:42.468Z,95150.16
2023-05-06T08:25:13.533Z,95144.28
2023-05-06T08:27:43.043Z,95145.88
2023-05-06T08:30:13.427Z,95147.22
2023-05-06T08:32:42.722Z,95144.78
2023-05-06T08:35:12.235Z,95147.19
2023-05-06T08:37:42.335Z,95156.25
2023-05-06T08:40:20.267Z,95154.00
2023-05-06T08:42:52.209Z,95155.06
2023-05-06T08:45:21.904Z,95144.09
2023-05-06T08:47:51.546Z,95145.00
2023-05-06T08:50:21.056Z,95142.69
2023-05-06T08:52:52.283Z,95138.25
2023-05-06T08:55:25.876Z,95137.63
2023-05-06T08:57:56.599Z,95142.66
2023-05-06T09:00:26.588Z,95140.03
2023-05-06T09:02:55.748Z,95138.13
2023-05-06T09:05:25.026Z,95127.75
2023-05-06T09:07:57.329Z,95138.13
2023-05-06T09:10:34.297Z,95125.28
2023-05-06T09:13:03.719Z,95131.03
2023-05-06T09:15:42.167Z,95115.19
2023-05-06T09:18:13.194Z,95118.75
2023-05-06T09:20:45.742Z,95114.59
2023-05-06T09:23:17.273Z,95122.16
2023-05-06T09:25:49.965Z,95111.38
2023-05-06T09:28:19.222Z,95111.38
2023-05-06T09:30:48.937Z,95110.66
2023-05-06T09:33:18.133Z,95108.28
2023-05-06T09:35:47.677Z,95112.81
2023-05-06T09:38:17.028Z,95109.53
2023-05-06T09:40:47.614Z,95107.66
2023-05-06T09:43:17.315Z,95104.97
2023-05-06T09:45:47.129Z,95102.28
2023-05-06T09:48:17.011Z,95095.34
2023-05-06T09:50:47.000Z,95092.59
2023-05-06T09:53:18.227Z,95096.41
2023-05-06T09:55:50.005Z,95101.03
2023-05-06T09:58:20.501Z,95082.56
2023-05-06T10:00:51.250Z,95102.38
2023-05-06T10:03:23.407Z,95090.47
2023-05-06T10:05:53.482Z,95084.00
2023-05-06T10:08:25.110Z,95081.81
2023-05-06T10:10:57.154Z,95088.91
2023-05-06T10:13:26.425Z,95079.22
2023-05-06T10:15:56.579Z,95071.81
2023-05-06T10:18:28.326Z,95075.72
2023-05-06T10:20:58.312Z,95074.56
2023-05-06T10:23:32.816Z,95071.75
2023-05-06T10:26:08.394Z,95073.19
2023-05-06T10:28:42.381Z,95076.34
2023-05-06T10:31:13.590Z,95076.31
2023-05-06T10:33:47.583Z,95071.03
2023-05-06T10:36:21.694Z,95072.19
2023-05-06T10:38:55.093Z,95070.53
2023-05-06T10:41:28.329Z,95073.50
2023-05-06T10:44:00.249Z,95067.31
2023-05-06T10:46:33.156Z,95063.97
2023-05-06T10:49:20.320Z,95057.22
2023-05-06T10:52:13.026Z,95051.03
2023-05-06T10:54:53.126Z,95062.06
2023-05-06T10:57:27.271Z,95057.56
2023-05-06T10:59:56.733Z,95052.47
2023-05-06T11:02:26.489Z,95053.84
2023-05-06T11:05:02.399Z,95053.94
2023-05-06T11:07:33.616Z,95056.47
2023-05-06T11:10:06.437Z,95055.66
2023-05-06T11:12:51.489Z,95055.78
2023-05-06T11:15:25.596Z,95056.97
2023-05-06T11:17:56.257Z,95048.69
2023-05-06T11:20:27.779Z,95054.69
2023-05-06T11:22:57.017Z,95050.53
2023-05-06T11:25:45.291Z,95057.88
2023-05-06T11:28:16.591Z,95049.63
2023-05-06T11:30:55.508Z,95057.16
2023-05-06T11:33:27.868Z,95056.75
2023-05-06T11:35:57.336Z,95057.56
2023-05-06T11:38:27.003Z,95046.00
2023-05-06T11:40:56.726Z,95050.56
2023-05-06T11:43:27.271Z,95048.41
2023-05-06T11:45:56.428Z,95044.53
2023-05-06T11:48:25.584Z,95055.38
2023-05-06T11:50:56.060Z,95057.72
2023-05-06T11:53:26.272Z,95055.69
2023-05-06T11:55:55.968Z,95055.44
2023-05-06T11:58:29.171Z,95049.22
2023-05-06T12:01:00.067Z,95058.59
2023-05-06T12:03:30.430Z,95053.66
2023-05-06T12:06:01.548Z,95049.88
2023-05-06T12:08:33.453Z,95048.69
2023-05-06T12:11:04.120Z,95045.59
2023-05-06T12:13:37.237Z,95041.22
2023-05-06T12:16:08.022Z,95040.78
2023-05-06T12:18:37.638Z,95040.91
2023-05-06T12:21:07.688Z,95041.69
2023-05-06T12:23:37.134Z,95052.19
2023-05-06T12:26:09.507Z,95045.25
2023-05-06T12:28:42.877Z,95039.31
2023-05-06T12:31:21.758Z,95042.69
2023-05-06T12:33:56.024Z,95041.31
2023-05-06T12:36:26.825Z,95041.34
2023-05-06T12:38:57.539Z,95039.97
2023-05-06T12:41:36.653Z,95038.75
2023-05-06T12:44:34.050Z,95038.75
2023-05-06T12:47:04.751Z,95028.38
2023-05-06T12:49:51.215Z,95026.34
2023-05-06T12:52:21.735Z,95028.00
2023-05-06T12:54:53.089Z,95030.69
2023-05-06T12:57:23.202Z,95021.28
2023-05-06T12:59:55.175Z,95019.81
2023-05-06T13:02:24.506Z,95007.59
2023-05-06T13:04:53.893Z,95022.50
2023-05-06T13:07:23.148Z,95020.16
2023-05-06T13:09:52.495Z,95015.41
2023-05-06T13:12:21.712Z,95018.31
2023-05-06T13:14:50.898Z,95021.78
2023-05-06T13:17:21.722Z,95024.13
2023-05-06T13:19:51.319Z,95016.78
2023-05-06T13:22:20.669Z,95019.25
2023-05-06T13:24:50.048Z,95019.16
2023-05-06T13:27:20.055Z,95013.06
2023-05-06T13:29:49.283Z,95018.34
2023-05-06T13:32:18.645Z,95016.28
2023-05-06T13:34:49.176Z,95016.53
2023-05-06T13:37:18.530Z,95009.59
2023-05-06T13:39:47.702Z,95014.09
2023-05-06T13:42:17.106Z,95012.84
2023-05-06T13:44:46.299Z,95012.34
2023-05-06T13:47:15.746Z,95014.97
2023-05-06T13:49:45.490Z,95014.91
2023-05-06T13:52:16.214Z,95015.66
2023-05-06T13:54:45.404Z,95010.06
2023-05-06T13:57:14.571Z,95008.94
2023-05-06T13:59:43.792Z,95008.28
2023-05-06T14:02:13.782Z,95005.25
2023-05-06T14:04:43.251Z,95007.94
2023-05-06T14:07:12.571Z,95008.09
2023-05-06T14:09:43.334Z,94998.94
2023-05-06T14:12:12.566Z,95006.41
2023-05-06T14:14:41.897Z,94994.03
2023-05-06T14:17:11.967Z,95002.56
2023-05-06T14:19:41.225Z,94997.28
2023-05-06T14:22:10.493Z,95011.41
2023-05-06T14:24:39.731Z,95008.69
2023-05-06T14:27:10.513Z,95002.78
2023-05-06T14:29:43.348Z,95016.75
2023-05-06T14:32:12.571Z,95009.75
2023-05-06T14:34:42.180Z,95019.72
2023-05-06T14:37:11.402Z,95016.44
2023-05-06T14:39:40.459Z,95008.97
2023-05-06T14:42:11.194Z,95030.28
2023-05-06T14:44:40.418Z,95030.94
2023-05-06T14:47:09.763Z,95031.94
2023-05-06T14:49:38.901Z,95031.66
2023-05-06T14:52:08.081Z,95037.66
2023-05-06T14:54:42.557Z,95025.91
2023-05-06T14:57:13.604Z,95017.31
2023-05-06T14:59:43.144Z,95016.53
2023-05-06T15:02:12.590Z,95020.59
2023-05-06T15:04:41.869Z,95017.16
2023-05-06T15:07:11.106Z,95010.88
2023-05-06T15:09:44.037Z,95009.53
2023-05-06T15:12:15.119Z,95000.38
2023-05-06T15:14:44.215Z,95004.41
2023-05-06T15:17:13.763Z,95019.34
2023-05-06T15:19:43.006Z,95012.03
2023-05-06T15:22:13.422Z,95006.53
2023-05-06T15:24:42.749Z,95001.41
2023-05-06T15:27:13.631Z,95005.31
2023-05-06T15:29:42.931Z,95008.06
2023-05-06T15:32:12.127Z,94998.88
2023-05-06T15:34:41.453Z,94995.25
2023-05-06T15:37:11.357Z,95001.66
2023-05-06T15:39:40.673Z,94998.97
2023-05-06T15:42:11.252Z,94996.59
2023-05-06T15:44:41.811Z,95002.13
2023-05-06T15:47:11.213Z,95000.47
2023-05-06T15:52:12.615Z,95004.41
2023-05-06T15:54:41.637Z,94997.97
2023-05-06T15:57:11.788Z,94998.63
2023-05-06T15:59:42.373Z,94991.41
2023-05-06T16:04:43.908Z,94984.53
2023-05-06T16:07:13.358Z,94982.63
2023-05-06T16:09:43.073Z,94984.53
2023-05-06T16:12:12.188Z,94981.09
2023-05-06T16:14:42.800Z,94989.94
2023-05-06T16:17:12.335Z,94993.41
2023-05-06T16:19:41.527Z,94974.91
2023-05-06T16:22:11.064Z,94979.47
2023-05-06T16:24:40.243Z,94985.50
2023-05-06T16:27:09.410Z,94983.97
2023-05-06T16:29:38.597Z,94981.50
2023-05-06T16:32:09.278Z,94983.84
2023-05-06T16:34:40.507Z,94985.78
2023-05-06T16:37:10.270Z,94990.13
2023-05-06T16:39:39.452Z,94979.16
2023-05-06T16:42:08.626Z,94976.84
2023-05-06T16:44:37.813Z,94981.13
2023-05-06T16:47:07.350Z,94977.19
2023-05-06T16:49:38.323Z,94978.53
2023-05-06T16:52:07.574Z,94982.06
2023-05-06T16:54:37.121Z,94989.38
2023-05-06T16:57:06.509Z,94990.47
2023-05-06T16:59:35.758Z,94984.66
2023-05-06T17:02:05.862Z,94995.97
2023-05-06T17:04:35.256Z,94991.78
2023-05-06T17:07:06.230Z,94996.13
2023-05-06T17:09:35.661Z,94987.06
2023-05-06T17:12:05.305Z,95000.72
2023-05-06T17:14:35.733Z,94991.44
2023-05-06T17:17:05.739Z,94988.53
2023-05-06T17:19:35.184Z,94988.34
2023-05-06T17:22:06.108Z,94986.47
2023-05-06T17:24:36.625Z,94995.13
2023-05-06T17:27:06.105Z,94993.00
2023-05-06T17:29:35.349Z,94988.44
2023-05-06T17:32:05.110Z,94991.69
2023-05-06T17:34:35.414Z,94998.94
2023-05-06T17:37:06.530Z,94991.50
2023-05-06T17:39:36.567Z,95002.47
2023-05-06T17:42:06.023Z,95005.72
2023-05-06T17:44:35.709Z,95014.03
2023-05-06T17:47:05.131Z,95010.56
2023-05-06T17:49:34.892Z,95012.97
2023-05-06T17:52:05.628Z,95021.56
2023-05-06T17:54:36.679Z,95028.22
2023-05-06T17:57:06.094Z,95033.56
2023-05-06T17:59:35.224Z,95035.22
2023-05-06T18:02:04.819Z,95034.66
2023-05-06T18:04:34.483Z,95044.25
2023-05-06T18:07:04.208Z,95049.38
2023-05-06T18:09:35.129Z,95054.44
2023-05-06T18:12:04.471Z,95045.91
2023-05-06T18:14:33.816Z,95054.47
2023-05-06T18:17:03.605Z,95048.84
2023-05-06T18:19:32.813Z,95057.13
2023-05-06T18:22:02.380Z,95059.81
2023-05-06T18:24:31.578Z,95061.94
2023-05-06T18:27:02.832Z,95066.22
2023-05-06T18:29:33.423Z,95063.00
2023-05-06T18:32:04.303Z,95069.44
2023-05-06T18:34:33.782Z,95068.59
2023-05-06T18:37:02.973Z,95067.53
2023-05-06T18:39:32.565Z,95066.22
2023-05-06T18:42:04.167Z,95074.75
2023-05-06T18:44:33.692Z,95073.09
2023-05-06T18:47:03.322Z,95070.88
2023-05-06T18:49:32.987Z,95075.38
2023-05-06T18:52:02.678Z,95083.84
2023-05-06T18:54:32.242Z,95068.28
2023-05-06T18:57:04.525Z,95076.84
2023-05-06T18:59:34.577Z,95081.94
2023-05-06T19:02:05.780Z,95086.41
2023-05-06T19:04:36.222Z,95086.13
2023-05-06T19:07:05.965Z,95083.66
2023-05-06T19:09:37.368Z,95093.22
2023-05-06T19:12:08.557Z,95087.63
2023-05-06T19:14:38.229Z,95094.25
2023-05-06T19:17:09.633Z,95083.78
2023-05-06T19:19:41.809Z,95090.22
2023-05-06T19:22:12.602Z,95085.59
2023-05-06T19:24:42.693Z,95093.00
2023-05-06T19:27:13.920Z,95096.88
2023-05-06T19:29:43.278Z,95100.03
2023-05-06T19:32:12.585Z,95089.06
2023-05-06T19:34:41.796Z,95103.97
2023-05-06T19:37:11.130Z,95109.56
2023-05-06T19:39:40.415Z,95106.66
2023-05-06T19:42:09.768Z,95112.84
2023-05-06T19:44:40.397Z,95118.19
2023-05-06T19:47:09.528Z,95115.22
2023-05-06T19:49:38.626Z,95122.13
2023-05-06T19:52:07.738Z,95120.44
2023-05-06T19:54:37.004Z,95115.94
2023-05-06T19:57:06.095Z,95115.28
2023-05-06T19:59:35.342Z,95120.59
2023-05-06T20:02:06.122Z,95115.75
2023-05-06T20:04:36.544Z,95120.22
2023-05-06T20:07:06.008Z,95124.63
2023-05-06T20:09:35.083Z,95123.00
2023-05-06T20:12:04.266Z,95123.88
2023-05-06T20:14:33.587Z,95120.00
2023-05-06T20:17:03.258Z,95133.84
2023-05-06T20:19:34.079Z,95139.53
2023-05-06T20:22:03.397Z,95136.03
2023-05-06T20:24:32.529Z,95138.53
2023-05-06T20:27:01.777Z,95137.72
2023-05-06T20:29:31.118Z,95137.41
2023-05-06T20:32:00.551Z,95135.88
2023-05-06T20:34:30.047Z,95137.41
2023-05-06T20:37:01.546Z,95132.56
2023-05-06T20:39:30.695Z,95132.88
2023-05-06T20:41:59.667Z,95141.72
2023-05-06T20:44:28.889Z,95132.78
2023-05-06T20:46:58.055Z,95140.28
2023-05-06T20:49:28.152Z,95135.91
2023-05-06T20:51:57.760Z,95135.00
2023-05-06T20:54:28.373Z,95131.31
2023-05-06T20:56:58.100Z,95129.28
2023-05-06T20:59:29.629Z,95120.66
2023-05-06T21:01:58.861Z,95130.94
2023-05-06T21:04:27.915Z,95121.78
2023-05-06T21:06:57.515Z,95125.81
2023-05-06T21:09:29.285Z,95127.09
2023-05-06T21:11:59.976Z,95118.34
2023-05-06T21:14:29.497Z,95128.25
2023-05-06T21:16:58.658Z,95127.78
2023-05-06T21:19:27.740Z,95122.09
2023-05-06T21:21:56.972Z,95123.44
2023-05-06T21:24:27.628Z,95128.44
2023-05-06T21:26:56.785Z,95133.84
2023-05-06T21:29:25.971Z,95129.66
2023-05-06T21:31:55.038Z,95124.19
2023-05-06T21:34:25.731Z,95124.94
2023-05-06T21:36:54.907Z,95129.31
2023-05-06T21:39:23.924Z,95127.00
2023-05-06T21:41:54.608Z,95121.13
2023-05-06T21:44:23.669Z,95122.91
2023-05-06T21:46:52.920Z,95127.69
2023-05-06T21:49:22.864Z,95123.75
2023-05-06T21:51:51.880Z,95115.56
2023-05-06T21:54:21.339Z,95119.19
2023-05-06T21:56:50.294Z,95126.59
2023-05-06T21:59:20.973Z,95123.94
2023-05-06T22:01:50.216Z,95115.69
2023-05-06T22:04:21.214Z,95116.72
2023-05-06T22:06:50.290Z,95117.72
2023-05-06T22:09:19.358Z,95121.41
2023-05-06T22:11:48.512Z,95127.06
2023-05-06T22:14:19.860Z,95115.19
2023-05-06T22:16:52.887Z,95120.59
2023-05-06T22:19:22.242Z,95129.13
2023-05-06T22:21:54.690Z,95124.28
2023-05-06T22:24:23.930Z,95119.50
2023-05-06T22:26:53.136Z,95124.00
2023-05-06T22:29:22.196Z,95121.34
2023-05-06T22:31:52.795Z,95125.16
2023-05-06T22:34:22.144Z,95122.25
2023-05-06T22:36:54.501Z,95128.19
2023-05-06T22:39:23.542Z,95116.16
2023-05-06T22:41:52.666Z,95117.44
2023-05-06T22:44:21.751Z,95124.06
2023-05-06T22:46:53.604Z,95118.88
2023-05-06T22:49:23.641Z,95125.78
2023-05-06T22:51:52.830Z,95122.31
2023-05-06T22:54:21.904Z,95111.66
2023-05-06T22:56:51.541Z,95113.63
2023-05-06T22:59:20.747Z,95116.63
2023-05-06T23:01:49.915Z,95118.59
2023-05-06T23:04:20.488Z,95119.41
2023-05-06T23:06:49.802Z,95121.81
2023-05-06T23:09:18.920Z,95112.38
2023-05-06T23:11:48.608Z,95112.59
2023-05-06T23:14:18.430Z,95111.44
2023-05-06T23:16:47.699Z,95111.91
2023-05-06T23:19:16.814Z,95101.03
2023-05-06T23:21:47.350Z,95116.09
2023-05-06T23:24:16.525Z,95110.00
2023-05-06T23:26:45.647Z,95104.34
2023-05-06T23:29:14.767Z,95107.31
2023-05-06T23:31:43.799Z,95096.81
2023-05-06T23:34:13.085Z,95096.91
2023-05-06T23:36:42.435Z,95096.22
2023-05-06T23:39:12.893Z,95102.75
2023-05-06T23:41:42.129Z,95108.09
2023-05-06T23:44:11.157Z,95101.88
2023-05-06T23:46:40.453Z,95096.22
2023-05-06T23:49:09.564Z,95101.81
2023-05-06T23:51:38.844Z,95096.53
2023-05-06T23:54:08.007Z,95104.59
2023-05-06T23:56:41.912Z,95109.81
2023-05-06T23:59:11.619Z,95115.53
